createdAt,value
2022-09-09T00:02:12.044Z,1.40
2022-09-09T00:07:43.663Z,1.20
2022-09-09T00:13:01.502Z,1.60
2022-09-09T00:18:26.416Z,1.00
2022-09-09T00:23:40.496Z,1.20
2022-09-09T00:29:08.291Z,1.00
2022-09-09T00:34:14.556Z,1.30
2022-09-09T00:39:34.049Z,0.73
2022-09-09T00:44:38.571Z,0.80
2022-09-09T00:50:04.280Z,1.63
2022-09-09T00:55:16.618Z,1.45
2022-09-09T01:00:24.933Z,1.52
2022-09-09T01:05:45.819Z,1.27
2022-09-09T01:10:54.352Z,0.95
2022-09-09T01:16:06.331Z,1.08
2022-09-09T01:21:35.399Z,1.00
2022-09-09T01:26:46.904Z,1.27
2022-09-09T01:32:00.880Z,1.20
2022-09-09T01:37:10.332Z,1.48
2022-09-09T01:42:16.123Z,1.35
2022-09-09T01:47:18.739Z,1.00
2022-09-09T01:52:39.349Z,1.33
2022-09-09T01:58:02.073Z,1.20
2022-09-09T02:03:21.641Z,1.00
2022-09-09T02:08:37.277Z,1.98
2022-09-09T02:13:45.405Z,0.82
2022-09-09T02:18:54.536Z,1.35
2022-09-09T02:24:06.334Z,1.40
2022-09-09T02:29:20.608Z,1.13
2022-09-09T02:34:25.224Z,1.27
2022-09-09T02:39:27.240Z,1.60
2022-09-09T02:44:29.674Z,1.52
2022-09-09T02:50:00.596Z,1.63
2022-09-09T02:55:13.396Z,1.27
2022-09-09T03:00:15.987Z,1.42
2022-09-09T03:05:18.351Z,1.67
2022-09-09T03:10:20.558Z,1.08
2022-09-09T03:15:22.760Z,1.23
2022-09-09T03:20:27.244Z,1.10
2022-09-09T03:25:29.723Z,1.20
2022-09-09T03:30:32.310Z,1.35
2022-09-09T03:35:34.761Z,1.10
2022-09-09T03:40:38.892Z,1.00
2022-09-09T03:45:47.567Z,1.75
2022-09-09T03:50:52.444Z,1.45
2022-09-09T03:55:56.074Z,1.40
2022-09-09T04:01:02.783Z,1.20
2022-09-09T04:06:05.992Z,1.52
2022-09-09T04:11:08.548Z,1.30
2022-09-09T04:16:12.666Z,1.42
2022-09-09T04:21:16.479Z,1.27
2022-09-09T04:26:18.713Z,1.80
2022-09-09T04:31:24.664Z,1.42
2022-09-09T04:36:29.313Z,2.13
2022-09-09T04:41:36.468Z,1.95
2022-09-09T04:46:39.110Z,1.95
2022-09-09T04:51:40.802Z,1.60
2022-09-09T04:56:43.514Z,1.70
2022-09-09T05:01:46.751Z,2.05
2022-09-09T05:06:49.386Z,1.40
2022-09-09T05:11:51.524Z,1.42
2022-09-09T05:17:00.728Z,2.70
2022-09-09T05:22:03.326Z,3.15
2022-09-09T05:27:14.026Z,2.08
2022-09-09T05:32:17.268Z,2.28
2022-09-09T05:37:22.439Z,2.15
2022-09-09T05:42:25.221Z,2.67
2022-09-09T05:47:28.753Z,2.75
2022-09-09T05:52:31.349Z,2.83
2022-09-09T05:57:34.041Z,3.38
2022-09-09T06:02:38.274Z,2.63
2022-09-09T06:07:43.076Z,2.88
2022-09-09T06:12:45.143Z,2.97
2022-09-09T06:17:47.792Z,2.53
2022-09-09T06:22:49.897Z,1.92
2022-09-09T06:27:51.776Z,1.73
2022-09-09T06:32:56.513Z,1.48
2022-09-09T06:37:59.604Z,1.65
2022-09-09T06:43:02.183Z,1.80
2022-09-09T06:48:10.758Z,1.30
2022-09-09T06:53:12.616Z,1.40
2022-09-09T06:58:14.563Z,2.28
2022-09-09T07:03:16.301Z,1.42
2022-09-09T07:08:18.815Z,1.50
2022-09-09T07:13:26.405Z,1.30
2022-09-09T07:18:29.327Z,1.40
2022-09-09T07:23:36.012Z,1.13
2022-09-09T07:28:42.328Z,1.25
2022-09-09T07:33:45.694Z,0.90
2022-09-09T07:38:53.110Z,1.20
2022-09-09T07:43:55.185Z,1.10
2022-09-09T07:48:57.885Z,0.90
2022-09-09T07:54:05.987Z,1.10
2022-09-09T07:59:09.708Z,0.98
2022-09-09T08:04:16.569Z,0.80
2022-09-09T08:09:21.586Z,1.55
2022-09-09T08:14:24.426Z,1.65
2022-09-09T08:19:26.159Z,1.48
2022-09-09T08:24:28.702Z,1.73
2022-09-09T08:29:30.465Z,1.55
2022-09-09T08:34:33.355Z,1.23
2022-09-09T08:39:39.277Z,1.10
2022-09-09T08:44:56.203Z,1.33
2022-09-09T08:50:22.612Z,1.55
2022-09-09T08:55:34.377Z,1.20
2022-09-09T09:01:01.667Z,1.70
2022-09-09T09:06:50.286Z,1.48
2022-09-09T09:12:02.132Z,1.02
2022-09-09T09:17:20.272Z,1.33
2022-09-09T09:22:35.252Z,1.67
2022-09-09T09:28:11.583Z,0.90
2022-09-09T09:33:24.839Z,1.15
2022-09-09T09:43:55.707Z,1.25
2022-09-09T09:49:06.780Z,1.10
2022-09-09T09:54:19.888Z,1.60
2022-09-09T09:59:39.114Z,1.27
2022-09-09T10:04:46.456Z,1.33
2022-09-09T10:09:54.880Z,1.13
2022-09-09T10:15:03.527Z,1.02
2022-09-09T10:20:25.070Z,1.00
2022-09-09T10:25:49.829Z,1.25
2022-09-09T10:31:13.248Z,1.40
2022-09-09T10:36:21.595Z,1.10
2022-09-09T10:41:57.037Z,1.00
2022-09-09T10:47:21.720Z,1.70
2022-09-09T10:52:35.107Z,1.20
2022-09-09T10:57:47.030Z,1.40
2022-09-09T11:03:00.113Z,0.98
2022-09-09T11:08:05.937Z,1.10
2022-09-09T11:13:16.989Z,1.50
2022-09-09T11:18:24.058Z,1.20
2022-09-09T11:23:42.306Z,1.58
2022-09-09T11:29:05.069Z,1.20
2022-09-09T11:40:09.659Z,1.77
2022-09-09T11:45:20.521Z,1.35
2022-09-09T11:50:22.339Z,2.13
2022-09-09T11:55:28.401Z,1.00
2022-09-09T12:00:46.108Z,1.40
2022-09-09T12:05:48.017Z,0.93
2022-09-09T12:11:00.697Z,1.25
2022-09-09T12:16:06.247Z,1.17
2022-09-09T12:21:42.315Z,1.85
2022-09-09T12:26:58.811Z,1.45
2022-09-09T12:32:32.584Z,1.75
2022-09-09T12:37:47.695Z,1.70
2022-09-09T12:42:49.654Z,1.30
2022-09-09T12:48:07.504Z,0.80
2022-09-09T12:53:16.672Z,1.20
2022-09-09T12:58:20.366Z,0.95
2022-09-09T13:03:22.387Z,0.50
2022-09-09T13:08:24.167Z,0.93
2022-09-09T13:13:51.167Z,0.90
2022-09-09T13:18:53.795Z,0.90
2022-09-09T13:23:55.412Z,0.90
2022-09-09T13:29:19.290Z,0.70
2022-09-09T13:34:33.519Z,0.93
2022-09-09T13:39:37.729Z,0.75
2022-09-09T13:44:42.681Z,1.15
2022-09-09T13:49:44.388Z,0.90
2022-09-09T13:54:53.108Z,0.82
2022-09-09T14:00:11.352Z,1.23
2022-09-09T14:05:13.003Z,1.30
2022-09-09T14:10:14.700Z,1.23
2022-09-09T14:15:17.149Z,1.65
2022-09-09T14:20:20.202Z,1.63
2022-09-09T14:25:21.816Z,1.23
2022-09-09T14:30:23.448Z,1.33
2022-09-09T14:35:25.711Z,1.17
2022-09-09T14:40:27.774Z,1.70
2022-09-09T14:45:29.729Z,1.20
2022-09-09T14:50:31.447Z,0.88
2022-09-09T14:55:33.038Z,1.30
2022-09-09T15:00:35.073Z,1.05
2022-09-09T15:05:37.523Z,2.38
2022-09-09T15:10:40.124Z,1.50
2022-09-09T15:15:42.650Z,1.58
2022-09-09T15:20:48.683Z,1.48
2022-09-09T15:25:55.554Z,1.20
2022-09-09T15:30:58.027Z,1.33
2022-09-09T15:36:00.193Z,1.67
2022-09-09T15:41:01.785Z,1.23
2022-09-09T15:46:25.367Z,1.52
2022-09-09T15:51:43.897Z,1.92
2022-09-09T15:56:47.565Z,1.33
2022-09-09T16:01:52.234Z,1.13
2022-09-09T16:06:59.774Z,2.00
2022-09-09T16:12:03.442Z,1.30
2022-09-09T16:17:06.770Z,1.50
2022-09-09T16:22:08.646Z,1.50
2022-09-09T16:27:10.263Z,1.58
2022-09-09T16:32:12.161Z,1.42
2022-09-09T16:37:13.806Z,1.70
2022-09-09T16:42:15.384Z,1.98
2022-09-09T16:47:16.971Z,1.63
2022-09-09T16:52:20.690Z,1.92
2022-09-09T16:57:22.393Z,1.52
2022-09-09T17:02:25.469Z,1.40
2022-09-09T17:07:27.100Z,1.58
2022-09-09T17:12:28.738Z,1.65
2022-09-09T17:17:32.380Z,1.30
2022-09-09T17:22:34.106Z,1.85
2022-09-09T17:27:35.760Z,1.60
2022-09-09T17:32:37.452Z,2.08
2022-09-09T17:37:39.186Z,1.42
2022-09-09T17:42:41.693Z,1.80
2022-09-09T17:47:43.946Z,1.60
2022-09-09T17:52:45.536Z,1.33
2022-09-09T17:57:47.175Z,1.27
2022-09-09T18:02:48.808Z,1.20
2022-09-09T18:07:50.437Z,1.25
2022-09-09T18:12:52.131Z,1.25
2022-09-09T18:17:53.724Z,1.55
2022-09-09T18:22:55.357Z,1.25
2022-09-09T18:27:58.497Z,1.20
2022-09-09T18:33:00.487Z,1.60
2022-09-09T18:38:02.097Z,2.92
2022-09-09T18:43:03.802Z,3.50
2022-09-09T18:48:05.650Z,1.30
2022-09-09T18:53:07.240Z,1.25
2022-09-09T18:58:08.831Z,1.10
2022-09-09T19:03:10.432Z,1.20
2022-09-09T19:08:12.051Z,1.60
2022-09-09T19:13:14.498Z,1.67
2022-09-09T19:18:16.362Z,1.92
2022-09-09T19:23:17.980Z,3.72
2022-09-09T19:28:19.569Z,1.38
2022-09-09T19:33:21.146Z,5.43
2022-09-09T19:38:22.802Z,1.77
2022-09-09T19:43:24.909Z,1.70
2022-09-09T19:48:31.479Z,3.35
2022-09-09T19:53:37.596Z,2.78
2022-09-09T19:58:41.062Z,3.58
2022-09-09T20:03:44.918Z,2.20
2022-09-09T20:08:48.168Z,2.72
2022-09-09T20:13:50.062Z,1.98
2022-09-09T20:18:54.204Z,2.38
2022-09-09T20:23:56.086Z,2.78
2022-09-09T20:28:58.341Z,2.72
2022-09-09T20:33:59.987Z,2.85
2022-09-09T20:39:08.199Z,2.63
2022-09-09T20:44:14.347Z,2.78
2022-09-09T20:49:18.884Z,3.53
2022-09-09T20:54:26.163Z,4.72
2022-09-09T20:59:31.004Z,7.60
2022-09-09T21:04:32.623Z,6.28
2022-09-09T21:09:34.195Z,6.57
2022-09-09T21:14:35.870Z,6.45
2022-09-09T21:19:37.698Z,6.93
2022-09-09T21:24:39.364Z,6.20
2022-09-09T21:29:41.010Z,4.95
2022-09-09T21:34:42.707Z,5.05
2022-09-09T21:39:44.415Z,4.40
2022-09-09T21:44:46.024Z,7.28
2022-09-09T21:49:47.734Z,4.65
2022-09-09T21:54:49.773Z,5.07
2022-09-09T21:59:52.950Z,5.07
2022-09-09T22:04:54.531Z,6.07
2022-09-09T22:09:56.128Z,5.18
2022-09-09T22:14:58.232Z,4.50
2022-09-09T22:19:59.915Z,4.82
2022-09-09T22:25:01.504Z,4.13
2022-09-09T22:30:03.685Z,4.60
2022-09-09T22:35:05.714Z,2.78
2022-09-09T22:40:08.875Z,2.85
2022-09-09T22:45:11.770Z,2.60
2022-09-09T22:50:13.726Z,2.30
2022-09-09T22:55:15.431Z,3.85
2022-09-09T23:00:17.070Z,4.10
2022-09-09T23:05:20.373Z,3.92
2022-09-09T23:10:21.993Z,3.60
2022-09-09T23:15:24.088Z,3.83
2022-09-09T23:20:26.862Z,3.78
2022-09-09T23:25:28.471Z,8.55
2022-09-09T23:30:30.265Z,9.32
2022-09-09T23:35:33.010Z,0.90
2022-09-09T23:40:34.795Z,4.60
2022-09-09T23:45:36.505Z,0.95
2022-09-09T23:50:38.142Z,1.52
2022-09-09T23:55:39.779Z,0.73
